createdAt,value
2019-01-12T00:02:06.078Z,22.93
2019-01-12T00:07:03.411Z,23.77
2019-01-12T00:11:59.139Z,17.57
2019-01-12T00:16:54.950Z,16.40
2019-01-12T00:21:50.699Z,11.53
2019-01-12T00:26:48.877Z,16.67
2019-01-12T00:31:44.574Z,13.77
2019-01-12T00:36:40.220Z,12.53
2019-01-12T00:41:35.910Z,13.50
2019-01-12T00:46:31.626Z,18.73
2019-01-12T00:51:27.305Z,14.70
2019-01-12T00:56:23.088Z,12.50
2019-01-12T01:01:18.754Z,13.37
2019-01-12T01:06:14.459Z,10.27
2019-01-12T01:11:10.114Z,9.57
2019-01-12T01:16:05.858Z,16.57
2019-01-12T01:21:01.550Z,13.23
2019-01-12T01:25:57.237Z,11.67
2019-01-12T01:30:52.874Z,13.37
2019-01-12T01:35:48.485Z,13.50
2019-01-12T01:40:44.197Z,11.63
2019-01-12T01:45:39.891Z,14.43
2019-01-12T01:50:35.601Z,13.50
2019-01-12T01:55:31.273Z,13.67
2019-01-12T02:00:26.940Z,12.63
2019-01-12T02:05:22.609Z,11.63
2019-01-12T02:10:20.795Z,7.90
2019-01-12T02:15:16.826Z,8.57
2019-01-12T02:20:12.540Z,12.17
2019-01-12T02:25:08.476Z,11.63
2019-01-12T02:30:05.153Z,8.67
2019-01-12T02:35:06.244Z,9.43
2019-01-12T02:40:03.710Z,11.83
2019-01-12T02:44:59.436Z,8.43
2019-01-12T02:49:55.105Z,12.40
2019-01-12T02:54:50.775Z,8.23
2019-01-12T02:59:46.454Z,7.47
2019-01-12T03:04:42.118Z,11.37
2019-01-12T03:09:37.766Z,9.83
2019-01-12T03:14:33.416Z,8.27
2019-01-12T03:19:29.035Z,8.57
2019-01-12T03:24:24.702Z,8.80
2019-01-12T03:29:20.467Z,10.03
2019-01-12T03:34:16.433Z,12.23
2019-01-12T03:39:12.064Z,9.20
2019-01-12T03:44:07.758Z,9.00
2019-01-12T03:49:03.463Z,9.30
2019-01-12T03:53:59.124Z,9.23
2019-01-12T03:58:54.843Z,10.17
2019-01-12T04:03:50.422Z,10.07
2019-01-12T04:08:46.121Z,13.00
2019-01-12T04:13:41.808Z,12.03
2019-01-12T04:18:37.426Z,12.07
2019-01-12T04:23:33.022Z,9.83
2019-01-12T04:28:28.665Z,12.07
2019-01-12T04:33:24.369Z,9.33
2019-01-12T04:38:20.077Z,10.87
2019-01-12T04:43:15.750Z,11.40
2019-01-12T04:48:11.366Z,11.60
2019-01-12T04:53:07.039Z,11.17
2019-01-12T04:58:02.708Z,14.23
2019-01-12T05:02:58.374Z,11.30
2019-01-12T05:07:53.995Z,15.93
2019-01-12T05:12:49.701Z,15.23
2019-01-12T05:17:45.351Z,122.37
2019-01-12T05:22:41.036Z,89.63
2019-01-12T05:27:36.629Z,50.50
2019-01-12T05:32:32.237Z,27.27
2019-01-12T05:37:27.826Z,17.03
2019-01-12T05:42:23.425Z,18.53
2019-01-12T05:47:19.015Z,19.73
2019-01-12T05:52:14.610Z,15.33
2019-01-12T05:57:10.168Z,11.90
2019-01-12T06:02:05.789Z,13.17
2019-01-12T06:07:01.475Z,11.70
2019-01-12T06:11:57.064Z,11.80
2019-01-12T06:16:52.722Z,10.37
2019-01-12T06:21:48.386Z,18.07
2019-01-12T06:26:43.997Z,19.40
2019-01-12T06:31:39.605Z,16.20
2019-01-12T06:36:36.319Z,23.97
2019-01-12T06:41:31.953Z,35.60
2019-01-12T06:46:27.609Z,22.73
2019-01-12T06:51:23.265Z,13.17
2019-01-12T06:56:18.872Z,44.67
2019-01-12T07:01:14.594Z,18.93
2019-01-12T07:06:10.357Z,92.10
2019-01-12T07:11:06.191Z,29.10
2019-01-12T07:16:01.932Z,26.90
2019-01-12T07:20:57.661Z,21.73
2019-01-12T07:25:53.367Z,26.60
2019-01-12T07:30:49.126Z,19.77
2019-01-12T07:35:44.858Z,29.10
2019-01-12T07:40:40.604Z,28.00
2019-01-12T07:45:37.371Z,40.27
2019-01-12T07:50:33.087Z,22.60
2019-01-12T07:55:28.835Z,28.00
2019-01-12T08:00:24.665Z,59.20
2019-01-12T08:05:23.002Z,39.13
2019-01-12T08:10:21.862Z,24.30
2019-01-12T08:15:19.002Z,36.23
2019-01-12T08:20:14.745Z,41.37
2019-01-12T08:25:10.935Z,32.27
2019-01-12T08:30:12.414Z,38.40
2019-01-12T08:35:09.853Z,39.63
2019-01-12T08:40:07.410Z,41.67
2019-01-12T08:45:03.166Z,19.23
2019-01-12T08:49:58.918Z,20.23
2019-01-12T08:54:54.980Z,32.47
2019-01-12T08:59:53.473Z,19.07
2019-01-12T09:04:49.245Z,13.03
2019-01-12T09:09:44.962Z,13.17
2019-01-12T09:14:40.706Z,14.37
2019-01-12T09:19:37.490Z,14.10
2019-01-12T09:24:33.254Z,15.57
2019-01-12T09:29:29.036Z,14.60
2019-01-12T09:34:24.759Z,15.83
2019-01-12T09:39:20.488Z,12.43
2019-01-12T09:44:16.227Z,11.37
2019-01-12T09:49:11.957Z,12.63
2019-01-12T09:54:07.693Z,11.37
2019-01-12T09:59:03.465Z,12.73
2019-01-12T10:03:59.234Z,11.20
2019-01-12T10:08:55.022Z,9.80
2019-01-12T10:13:50.795Z,8.93
2019-01-12T10:18:46.559Z,12.43
2019-01-12T10:23:42.310Z,11.33
2019-01-12T10:28:40.110Z,11.23
2019-01-12T10:33:35.851Z,11.87
2019-01-12T10:38:31.614Z,8.60
2019-01-12T10:43:27.376Z,10.37
2019-01-12T10:48:23.115Z,15.13
2019-01-12T10:53:18.875Z,17.73
2019-01-12T10:58:14.634Z,15.90
2019-01-12T11:03:11.759Z,14.10
2019-01-12T11:08:07.865Z,15.50
2019-01-12T11:13:03.593Z,11.30
2019-01-12T11:17:59.330Z,12.83
2019-01-12T11:22:55.269Z,14.57
2019-01-12T11:27:50.996Z,11.80
2019-01-12T11:32:46.856Z,10.73
2019-01-12T11:37:42.801Z,13.03
2019-01-12T11:42:38.567Z,12.90
2019-01-12T11:47:34.384Z,9.17
2019-01-12T11:52:30.111Z,12.17
2019-01-12T11:57:25.858Z,10.53
2019-01-12T12:02:21.630Z,10.07
2019-01-12T12:07:17.347Z,7.33
2019-01-12T12:12:13.090Z,11.07
2019-01-12T12:17:09.034Z,10.33
2019-01-12T12:22:04.865Z,11.13
2019-01-12T12:27:00.574Z,9.13
2019-01-12T12:31:56.291Z,10.67
2019-01-12T12:36:52.022Z,10.73
2019-01-12T12:41:47.751Z,9.10
2019-01-12T12:46:43.520Z,10.37
2019-01-12T12:51:39.268Z,14.63
2019-01-12T12:56:34.986Z,11.67
2019-01-12T13:01:30.701Z,15.17
2019-01-12T13:06:26.478Z,12.10
2019-01-12T13:11:22.174Z,11.97
2019-01-12T13:16:17.931Z,12.53
2019-01-12T13:21:13.675Z,14.70
2019-01-12T13:26:09.422Z,11.23
2019-01-12T13:31:05.228Z,9.10
2019-01-12T13:36:00.966Z,11.07
2019-01-12T13:40:56.735Z,9.33
2019-01-12T13:45:52.527Z,8.77
2019-01-12T13:50:48.241Z,11.97
2019-01-12T13:55:44.003Z,10.33
2019-01-12T14:00:39.748Z,12.90
2019-01-12T14:05:35.732Z,12.97
2019-01-12T14:10:31.478Z,14.10
2019-01-12T14:15:27.344Z,12.47
2019-01-12T14:20:31.630Z,10.33
2019-01-12T14:25:27.564Z,10.97
2019-01-12T14:30:23.298Z,13.17
2019-01-12T14:35:19.174Z,12.10
2019-01-12T14:40:17.427Z,12.17
2019-01-12T14:45:19.371Z,11.33
2019-01-12T14:50:15.144Z,15.60
2019-01-12T14:55:12.437Z,13.33
2019-01-12T15:00:14.758Z,13.30
2019-01-12T15:05:13.052Z,14.70
2019-01-12T15:10:10.774Z,16.83
2019-01-12T15:15:07.827Z,96.80
2019-01-12T15:20:03.671Z,44.43
2019-01-12T15:24:59.378Z,40.67
2019-01-12T15:29:56.171Z,22.77
2019-01-12T15:34:51.878Z,25.17
2019-01-12T15:39:47.598Z,23.20
2019-01-12T15:44:43.318Z,25.90
2019-01-12T15:49:39.040Z,25.57
2019-01-12T15:54:34.763Z,29.47
2019-01-12T15:59:30.527Z,27.90
2019-01-12T16:04:26.246Z,30.20
2019-01-12T16:09:21.966Z,40.27
2019-01-12T16:14:17.680Z,30.70
2019-01-12T16:19:13.406Z,35.97
2019-01-12T16:24:10.119Z,32.57
2019-01-12T16:29:05.767Z,29.37
2019-01-12T16:34:01.503Z,32.87
2019-01-12T16:38:57.223Z,41.60
2019-01-12T16:43:52.940Z,36.30
2019-01-12T16:48:48.701Z,41.33
2019-01-12T16:53:44.408Z,36.53
2019-01-12T16:58:40.130Z,30.97
2019-01-12T17:03:35.849Z,32.40
2019-01-12T17:08:32.368Z,34.83
2019-01-12T17:13:28.083Z,34.57
2019-01-12T17:18:25.230Z,30.03
2019-01-12T17:23:20.987Z,31.00
2019-01-12T17:28:17.824Z,37.50
2019-01-12T17:33:13.562Z,41.27
2019-01-12T17:38:09.319Z,40.23
2019-01-12T17:43:05.154Z,43.40
2019-01-12T17:48:00.872Z,40.73
2019-01-12T17:52:56.870Z,41.20
2019-01-12T17:57:52.785Z,52.37
2019-01-12T18:02:48.530Z,304.37
2019-01-12T18:07:44.251Z,238.87
2019-01-12T18:12:40.901Z,59.50
2019-01-12T18:17:36.658Z,51.40
2019-01-12T18:22:32.371Z,59.23
2019-01-12T18:27:28.109Z,67.77
2019-01-12T18:32:23.860Z,84.83
2019-01-12T18:37:19.636Z,52.50
2019-01-12T18:42:15.402Z,45.57
2019-01-12T18:47:11.248Z,47.83
2019-01-12T18:52:09.942Z,71.97
2019-01-12T18:57:05.748Z,52.13
2019-01-12T19:02:02.519Z,54.73
2019-01-12T19:06:58.246Z,46.57
2019-01-12T19:11:54.225Z,57.27
2019-01-12T19:16:49.982Z,87.20
2019-01-12T19:21:45.915Z,87.57
2019-01-12T19:26:41.709Z,77.87
2019-01-12T19:31:37.492Z,75.17
2019-01-12T19:36:33.268Z,66.50
2019-01-12T19:41:29.001Z,67.37
2019-01-12T19:46:24.787Z,59.57
2019-01-12T19:51:20.947Z,74.67
2019-01-12T19:56:16.803Z,61.70
2019-01-12T20:01:12.599Z,67.87
2019-01-12T20:06:08.789Z,67.07
2019-01-12T20:11:04.566Z,76.90
2019-01-12T20:16:00.309Z,63.33
2019-01-12T20:20:56.063Z,73.27
2019-01-12T20:25:52.038Z,72.20
2019-01-12T20:31:30.853Z,70.60
2019-01-12T20:37:06.466Z,61.77
2019-01-12T20:42:51.130Z,71.03
2019-01-12T20:48:17.051Z,69.43
2019-01-12T20:53:58.158Z,75.00
2019-01-12T20:59:28.214Z,70.80
2019-01-12T21:05:07.120Z,75.33
2019-01-12T21:10:42.872Z,82.13
2019-01-12T21:16:03.333Z,85.07
2019-01-12T21:20:59.974Z,87.00
2019-01-12T21:25:56.538Z,75.50
2019-01-12T21:30:53.586Z,90.97
2019-01-12T21:35:51.206Z,73.07
2019-01-12T21:40:47.990Z,81.77
2019-01-12T21:45:44.920Z,87.13
2019-01-12T21:50:41.676Z,86.07
2019-01-12T21:55:38.479Z,77.20
2019-01-12T22:00:35.112Z,73.10
2019-01-12T22:05:32.402Z,72.23
2019-01-12T22:10:29.418Z,74.70
2019-01-12T22:15:26.161Z,65.93
2019-01-12T22:20:22.943Z,61.63
2019-01-12T22:25:19.898Z,61.90
2019-01-12T22:30:18.278Z,69.63
2019-01-12T22:35:14.960Z,57.80
2019-01-12T22:40:17.739Z,46.33
2019-01-12T22:45:14.609Z,46.60
2019-01-12T22:50:12.713Z,59.43
2019-01-12T22:55:11.102Z,56.80
2019-01-12T23:00:36.210Z,59.23
2019-01-12T23:05:34.437Z,57.40
2019-01-12T23:10:31.595Z,55.67
2019-01-12T23:15:28.106Z,51.97
2019-01-12T23:20:26.014Z,49.53
2019-01-12T23:25:23.533Z,51.50
2019-01-12T23:30:20.591Z,46.97
2019-01-12T23:35:17.439Z,58.50
2019-01-12T23:40:14.737Z,52.17
2019-01-12T23:45:11.650Z,55.17
2019-01-12T23:50:09.182Z,54.73
2019-01-12T23:55:06.754Z,56.80
